createdAt,value
2023-07-10T00:01:05.160Z,8.55
2023-07-10T00:03:29.298Z,6.40
2023-07-10T00:05:50.847Z,6.15
2023-07-10T00:08:12.293Z,10.07
2023-07-10T00:10:33.879Z,7.68
2023-07-10T00:12:55.310Z,9.55
2023-07-10T00:15:22.376Z,7.35
2023-07-10T00:17:46.718Z,7.75
2023-07-10T00:20:21.726Z,9.27
2023-07-10T00:22:43.266Z,9.18
2023-07-10T00:25:05.153Z,10.95
2023-07-10T00:27:26.587Z,10.32
2023-07-10T00:29:48.043Z,8.30
2023-07-10T00:32:12.332Z,8.70
2023-07-10T00:34:33.862Z,6.47
2023-07-10T00:36:55.397Z,14.57
2023-07-10T00:39:29.152Z,7.85
2023-07-10T00:41:57.246Z,8.30
2023-07-10T00:44:21.922Z,9.43
2023-07-10T00:46:52.166Z,5.30
2023-07-10T00:49:34.673Z,7.05
2023-07-10T00:52:14.977Z,7.82
2023-07-10T00:54:40.576Z,8.30
2023-07-10T00:57:05.448Z,7.35
2023-07-10T00:59:28.846Z,8.65
2023-07-10T01:02:23.550Z,7.78
2023-07-10T01:04:49.687Z,7.70
2023-07-10T01:07:16.906Z,7.10
2023-07-10T01:09:41.704Z,5.78
2023-07-10T01:12:04.929Z,9.75
2023-07-10T01:14:26.878Z,8.73
2023-07-10T01:16:48.463Z,8.55
2023-07-10T01:19:18.135Z,8.23
2023-07-10T01:21:39.674Z,7.78
2023-07-10T01:24:04.598Z,10.05
2023-07-10T01:26:26.615Z,8.25
2023-07-10T01:28:48.070Z,7.25
2023-07-10T01:31:13.468Z,7.32
2023-07-10T01:33:58.713Z,7.18
2023-07-10T01:36:24.504Z,9.27
2023-07-10T01:38:50.044Z,9.20
2023-07-10T01:41:28.613Z,11.55
2023-07-10T01:43:50.157Z,7.90
2023-07-10T01:46:20.331Z,9.07
2023-07-10T01:48:41.929Z,8.90
2023-07-10T01:51:03.485Z,7.47
2023-07-10T01:53:24.991Z,8.82
2023-07-10T01:55:47.969Z,7.75
2023-07-10T01:58:09.446Z,10.20
2023-07-10T02:00:31.013Z,11.68
2023-07-10T02:02:52.554Z,8.70
2023-07-10T02:05:14.122Z,8.73
2023-07-10T02:07:35.620Z,6.70
2023-07-10T02:09:57.075Z,6.10
2023-07-10T02:12:18.562Z,10.68
2023-07-10T02:14:41.877Z,7.10
2023-07-10T02:17:03.919Z,7.85
2023-07-10T02:19:25.414Z,6.70
2023-07-10T02:21:47.832Z,10.13
2023-07-10T02:24:09.471Z,7.95
2023-07-10T02:26:31.065Z,8.43
2023-07-10T02:28:52.605Z,8.90
2023-07-10T02:31:14.109Z,8.35
2023-07-10T02:33:35.713Z,9.65
2023-07-10T02:35:57.134Z,9.43
2023-07-10T02:38:18.570Z,9.30
2023-07-10T02:40:40.683Z,9.23
2023-07-10T02:43:02.193Z,7.20
2023-07-10T02:45:23.661Z,9.73
2023-07-10T02:47:45.126Z,7.00
2023-07-10T02:50:07.986Z,7.95
2023-07-10T02:52:29.452Z,6.85
2023-07-10T02:54:50.906Z,9.52
2023-07-10T02:57:12.347Z,8.20
2023-07-10T02:59:33.885Z,8.80
2023-07-10T03:01:55.574Z,6.95
2023-07-10T03:04:17.038Z,7.63
2023-07-10T03:06:38.481Z,6.25
2023-07-10T03:08:59.967Z,6.45
2023-07-10T03:11:23.491Z,10.57
2023-07-10T03:13:44.992Z,6.65
2023-07-10T03:16:14.954Z,9.25
2023-07-10T03:18:37.100Z,9.60
2023-07-10T03:20:58.602Z,7.57
2023-07-10T03:23:20.048Z,8.52
2023-07-10T03:25:41.506Z,8.90
2023-07-10T03:28:03.005Z,8.57
2023-07-10T03:30:24.480Z,11.27
2023-07-10T03:32:45.981Z,8.32
2023-07-10T03:35:07.868Z,7.85
2023-07-10T03:37:29.359Z,8.23
2023-07-10T03:39:50.844Z,6.57
2023-07-10T03:42:12.614Z,9.38
2023-07-10T03:44:34.536Z,7.85
2023-07-10T03:46:58.223Z,7.13
2023-07-10T03:49:19.853Z,10.30
2023-07-10T03:51:41.559Z,10.45
2023-07-10T03:54:03.584Z,8.50
2023-07-10T03:56:25.141Z,8.30
2023-07-10T03:58:47.083Z,6.75
2023-07-10T04:01:08.865Z,7.72
2023-07-10T04:03:33.286Z,7.05
2023-07-10T04:05:58.100Z,8.52
2023-07-10T04:08:23.574Z,10.90
2023-07-10T04:10:52.159Z,9.52
2023-07-10T04:13:13.610Z,7.90
2023-07-10T04:15:35.116Z,7.05
2023-07-10T04:17:56.612Z,7.43
2023-07-10T04:20:18.115Z,7.50
2023-07-10T04:22:39.536Z,7.43
2023-07-10T04:25:06.791Z,10.40
2023-07-10T04:27:28.230Z,9.70
2023-07-10T04:29:49.675Z,8.90
2023-07-10T04:32:11.184Z,11.80
2023-07-10T04:34:32.657Z,7.70
2023-07-10T04:36:54.169Z,9.07
2023-07-10T04:39:15.721Z,8.05
2023-07-10T04:41:38.050Z,8.40
2023-07-10T04:43:59.498Z,9.85
2023-07-10T04:46:22.262Z,12.85
2023-07-10T04:48:47.356Z,13.02
2023-07-10T04:51:10.880Z,10.73
2023-07-10T04:53:33.948Z,11.05
2023-07-10T04:55:55.680Z,7.82
2023-07-10T04:58:18.054Z,7.70
2023-07-10T05:00:39.733Z,12.48
2023-07-10T05:03:02.106Z,18.35
2023-07-10T05:05:23.675Z,11.10
2023-07-10T05:07:45.152Z,11.73
2023-07-10T05:10:06.935Z,9.35
2023-07-10T05:12:28.420Z,9.50
2023-07-10T05:14:49.900Z,10.10
2023-07-10T05:17:11.418Z,9.23
2023-07-10T05:19:34.208Z,10.40
2023-07-10T05:21:55.893Z,10.48
2023-07-10T05:24:17.368Z,10.10
2023-07-10T05:26:38.790Z,10.70
2023-07-10T05:29:00.432Z,11.77
2023-07-10T05:31:21.958Z,10.48
2023-07-10T05:33:43.559Z,10.32
2023-07-10T05:36:08.209Z,13.10
2023-07-10T05:38:32.801Z,10.93
2023-07-10T05:40:54.660Z,11.70
2023-07-10T05:43:16.109Z,9.55
2023-07-10T05:45:37.613Z,10.40
2023-07-10T05:47:59.057Z,9.88
2023-07-10T05:50:20.576Z,8.27
2023-07-10T05:52:42.019Z,8.13
2023-07-10T05:55:03.758Z,10.00
2023-07-10T05:57:25.211Z,9.40
2023-07-10T05:59:46.664Z,13.75
2023-07-10T06:02:12.391Z,10.68
2023-07-10T06:04:33.865Z,10.82
2023-07-10T06:06:55.353Z,10.93
2023-07-10T06:09:18.438Z,11.15
2023-07-10T06:11:39.895Z,8.93
2023-07-10T06:14:01.485Z,12.70
2023-07-10T06:16:23.109Z,8.77
2023-07-10T06:18:44.579Z,9.13
2023-07-10T06:21:07.138Z,9.57
2023-07-10T06:23:30.019Z,10.80
2023-07-10T06:25:52.299Z,9.05
2023-07-10T06:28:14.644Z,10.55
2023-07-10T06:30:39.592Z,8.23
2023-07-10T06:33:01.511Z,7.47
2023-07-10T06:35:23.174Z,9.30
2023-07-10T06:37:45.120Z,8.60
2023-07-10T06:40:14.935Z,8.45
2023-07-10T06:42:37.338Z,10.98
2023-07-10T06:44:58.808Z,9.18
2023-07-10T06:47:20.306Z,6.43
2023-07-10T06:49:41.752Z,8.88
2023-07-10T06:52:03.354Z,8.02
2023-07-10T06:54:24.824Z,12.13
2023-07-10T06:56:46.334Z,7.68
2023-07-10T06:59:07.764Z,6.95
2023-07-10T07:01:29.455Z,6.07
2023-07-10T07:03:50.981Z,8.55
2023-07-10T07:06:12.480Z,8.50
2023-07-10T07:08:33.919Z,8.77
2023-07-10T07:10:55.638Z,9.43
2023-07-10T07:13:20.401Z,9.90
2023-07-10T07:15:43.507Z,7.45
2023-07-10T07:18:05.338Z,8.48
2023-07-10T07:20:26.945Z,7.75
2023-07-10T07:22:48.429Z,9.80
2023-07-10T07:25:09.873Z,6.80
2023-07-10T07:27:33.246Z,8.93
2023-07-10T07:29:55.097Z,9.43
2023-07-10T07:32:16.522Z,6.28
2023-07-10T07:34:38.073Z,6.38
2023-07-10T07:36:59.578Z,9.23
2023-07-10T07:39:29.148Z,8.50
2023-07-10T07:41:50.605Z,7.35
2023-07-10T07:44:12.198Z,7.63
2023-07-10T07:46:33.865Z,10.35
2023-07-10T07:48:55.808Z,7.18
2023-07-10T07:51:17.411Z,8.23
2023-07-10T07:53:41.389Z,6.90
2023-07-10T07:56:03.540Z,8.77
2023-07-10T07:58:25.325Z,7.82
2023-07-10T08:00:46.954Z,8.77
2023-07-10T08:03:12.379Z,9.00
2023-07-10T08:05:35.860Z,7.25
2023-07-10T08:07:58.187Z,9.27
2023-07-10T08:10:19.644Z,6.75
2023-07-10T08:12:41.109Z,9.80
2023-07-10T08:15:02.798Z,7.50
2023-07-10T08:17:24.322Z,8.55
2023-07-10T08:19:45.802Z,9.23
2023-07-10T08:22:07.295Z,9.75
2023-07-10T08:24:28.893Z,9.75
2023-07-10T08:26:50.385Z,8.30
2023-07-10T08:29:26.978Z,8.85
2023-07-10T08:31:48.450Z,9.23
2023-07-10T08:34:09.916Z,7.90
2023-07-10T08:36:32.519Z,7.63
2023-07-10T08:38:54.001Z,7.20
2023-07-10T08:41:19.851Z,7.65
2023-07-10T08:43:42.256Z,8.57
2023-07-10T08:46:09.367Z,8.27
2023-07-10T08:48:39.274Z,7.28
2023-07-10T08:51:11.940Z,8.70
2023-07-10T08:53:37.942Z,10.13
2023-07-10T08:56:06.587Z,7.35
2023-07-10T08:58:36.270Z,7.43
2023-07-10T09:01:02.472Z,9.82
2023-07-10T09:03:44.226Z,7.78
2023-07-10T09:06:11.465Z,9.07
2023-07-10T09:08:34.236Z,12.45
2023-07-10T09:11:01.523Z,9.68
2023-07-10T09:13:39.481Z,7.95
2023-07-10T09:16:02.450Z,8.77
2023-07-10T09:19:06.435Z,10.93
2023-07-10T09:21:33.128Z,11.10
2023-07-10T09:23:54.712Z,10.93
2023-07-10T09:26:19.500Z,9.20
2023-07-10T09:28:42.222Z,10.60
2023-07-10T09:31:09.695Z,9.65
2023-07-10T09:33:54.511Z,9.48
2023-07-10T09:36:18.195Z,10.90
2023-07-10T09:38:43.530Z,11.10
2023-07-10T09:41:12.362Z,11.55
2023-07-10T09:43:34.808Z,11.70
2023-07-10T09:46:00.082Z,11.13
2023-07-10T09:48:27.407Z,11.07
2023-07-10T09:50:52.240Z,10.77
2023-07-10T09:53:35.437Z,9.98
2023-07-10T09:55:57.242Z,12.70
2023-07-10T09:58:18.877Z,10.95
2023-07-10T10:00:46.125Z,12.35
2023-07-10T10:03:15.741Z,12.13
2023-07-10T10:05:41.719Z,13.23
2023-07-10T10:08:17.501Z,11.70
2023-07-10T10:10:39.128Z,11.05
2023-07-10T10:13:26.745Z,11.60
2023-07-10T10:16:04.549Z,11.50
2023-07-10T10:18:55.159Z,11.70
2023-07-10T10:21:19.264Z,11.90
2023-07-10T10:23:43.063Z,11.50
2023-07-10T10:26:28.383Z,11.68
2023-07-10T10:29:15.724Z,12.40
2023-07-10T10:31:41.740Z,14.23
2023-07-10T10:34:11.061Z,12.50
2023-07-10T10:37:04.606Z,12.57
2023-07-10T10:39:38.379Z,12.15
2023-07-10T10:42:09.645Z,11.80
2023-07-10T10:44:54.095Z,12.07
2023-07-10T10:47:46.358Z,11.82
2023-07-10T10:50:26.636Z,10.80
2023-07-10T10:52:59.132Z,12.07
2023-07-10T10:55:28.245Z,12.95
2023-07-10T10:58:11.776Z,13.27
2023-07-10T11:00:54.989Z,13.32
2023-07-10T11:03:32.758Z,15.50
2023-07-10T11:05:58.513Z,10.82
2023-07-10T11:08:27.515Z,12.95
2023-07-10T11:10:52.430Z,12.05
2023-07-10T11:13:24.409Z,12.32
2023-07-10T11:15:45.935Z,12.98
2023-07-10T11:18:13.721Z,11.13
2023-07-10T11:20:35.276Z,10.57
2023-07-10T11:22:58.944Z,10.43
2023-07-10T11:25:30.939Z,10.60
2023-07-10T11:27:52.447Z,11.00
2023-07-10T11:30:16.849Z,10.05
2023-07-10T11:33:02.675Z,9.45
2023-07-10T11:35:25.188Z,9.82
2023-07-10T11:37:49.655Z,14.95
2023-07-10T11:40:29.534Z,10.45
2023-07-10T11:42:51.472Z,10.25
2023-07-10T11:45:14.033Z,9.32
2023-07-10T11:47:35.831Z,9.05
2023-07-10T11:50:00.285Z,9.07
2023-07-10T11:52:21.661Z,9.10
2023-07-10T11:54:50.849Z,8.27
2023-07-10T11:57:17.288Z,10.82
2023-07-10T12:00:05.085Z,10.43
2023-07-10T12:02:36.839Z,10.88
2023-07-10T12:05:04.509Z,11.50
2023-07-10T12:07:25.991Z,10.55
2023-07-10T12:09:57.932Z,10.80
2023-07-10T12:12:19.708Z,9.23
2023-07-10T12:14:41.504Z,9.93
2023-07-10T12:19:39.705Z,9.85
2023-07-10T12:22:17.011Z,9.30
2023-07-10T12:24:38.603Z,12.60
2023-07-10T12:29:24.794Z,6.53
2023-07-10T12:31:46.890Z,7.07
2023-07-10T12:34:24.770Z,6.25
2023-07-10T12:36:50.630Z,6.65
2023-07-10T12:39:12.230Z,10.63
2023-07-10T12:41:35.452Z,5.63
2023-07-10T12:43:58.892Z,6.75
2023-07-10T12:46:26.702Z,7.47
2023-07-10T12:48:53.566Z,6.05
2023-07-10T12:51:27.194Z,9.32
2023-07-10T12:53:48.768Z,8.80
2023-07-10T12:56:26.369Z,10.00
2023-07-10T12:58:48.728Z,9.57
2023-07-10T13:01:28.517Z,9.95
2023-07-10T13:04:04.929Z,8.40
2023-07-10T13:06:26.698Z,7.47
2023-07-10T13:08:48.932Z,6.72
2023-07-10T13:11:32.195Z,6.78
2023-07-10T13:14:14.157Z,7.13
2023-07-10T13:16:44.643Z,8.57
2023-07-10T13:19:06.097Z,9.93
2023-07-10T13:21:28.611Z,11.25
2023-07-10T13:23:50.088Z,6.43
2023-07-10T13:26:17.791Z,7.60
2023-07-10T13:28:48.102Z,7.38
2023-07-10T13:31:10.896Z,6.53
2023-07-10T13:33:33.203Z,8.15
2023-07-10T13:35:58.334Z,6.30
2023-07-10T13:38:19.989Z,6.53
2023-07-10T13:40:41.721Z,5.97
2023-07-10T13:43:05.475Z,8.55
2023-07-10T13:45:26.929Z,5.95
2023-07-10T13:47:50.385Z,10.07
2023-07-10T13:50:17.180Z,6.20
2023-07-10T13:52:38.888Z,7.45
2023-07-10T13:55:00.408Z,5.70
2023-07-10T13:57:28.278Z,5.40
2023-07-10T13:59:52.790Z,6.35
2023-07-10T14:02:36.261Z,6.63
2023-07-10T14:05:00.113Z,6.18
2023-07-10T14:07:24.266Z,7.22
2023-07-10T14:09:45.786Z,5.80
2023-07-10T14:12:14.077Z,6.03
2023-07-10T14:14:35.547Z,7.55
2023-07-10T14:16:56.988Z,5.85
2023-07-10T14:19:20.017Z,6.63
2023-07-10T14:21:41.499Z,5.57
2023-07-10T14:24:02.951Z,8.32
2023-07-10T14:26:29.061Z,6.10
2023-07-10T14:28:51.819Z,5.30
2023-07-10T14:31:14.186Z,6.32
2023-07-10T14:33:35.677Z,6.13
2023-07-10T14:35:57.563Z,6.10
2023-07-10T14:38:25.935Z,6.03
2023-07-10T14:40:48.349Z,6.47
2023-07-10T14:43:11.087Z,5.25
2023-07-10T14:45:32.583Z,6.20
2023-07-10T14:47:54.115Z,5.70
2023-07-10T14:50:15.678Z,5.75
2023-07-10T14:52:37.176Z,5.93
2023-07-10T14:55:04.380Z,5.75
2023-07-10T14:57:37.143Z,5.60
2023-07-10T15:00:00.345Z,6.43
2023-07-10T15:02:26.149Z,6.32
2023-07-10T15:04:48.141Z,7.53
2023-07-10T15:07:13.269Z,6.13
2023-07-10T15:09:34.746Z,5.65
2023-07-10T15:11:56.224Z,6.30
2023-07-10T15:14:17.760Z,5.95
2023-07-10T15:16:39.592Z,6.32
2023-07-10T15:19:01.168Z,5.90
2023-07-10T15:21:25.985Z,5.30
2023-07-10T15:23:47.496Z,5.65
2023-07-10T15:26:09.042Z,6.05
2023-07-10T15:28:31.112Z,6.15
2023-07-10T15:30:57.100Z,6.13
2023-07-10T15:33:18.705Z,6.68
2023-07-10T15:35:41.139Z,5.95
2023-07-10T15:38:02.750Z,6.13
2023-07-10T15:40:28.651Z,5.75
2023-07-10T15:42:56.112Z,5.10
2023-07-10T15:45:18.989Z,5.88
2023-07-10T15:47:40.979Z,6.03
2023-07-10T15:50:02.591Z,7.00
2023-07-10T15:52:31.676Z,5.68
2023-07-10T15:54:53.198Z,8.63
2023-07-10T15:57:14.669Z,14.20
2023-07-10T15:59:36.137Z,6.88
2023-07-10T16:01:57.672Z,6.07
2023-07-10T16:04:22.255Z,5.70
2023-07-10T16:06:45.152Z,5.78
2023-07-10T16:09:10.380Z,5.10
2023-07-10T16:11:32.075Z,5.18
2023-07-10T16:13:54.212Z,8.07
2023-07-10T16:16:16.311Z,5.25
2023-07-10T16:18:38.163Z,5.03
2023-07-10T16:21:13.012Z,8.50
2023-07-10T16:23:35.918Z,5.28
2023-07-10T16:25:57.562Z,5.15
2023-07-10T16:28:19.095Z,5.22
2023-07-10T16:30:40.900Z,5.05
2023-07-10T16:33:05.543Z,5.57
2023-07-10T16:35:27.116Z,4.90
2023-07-10T16:37:50.054Z,5.25
2023-07-10T16:40:25.561Z,5.25
2023-07-10T16:42:47.853Z,4.90
2023-07-10T16:45:30.868Z,4.47
2023-07-10T16:47:52.715Z,4.88
2023-07-10T16:50:16.423Z,6.38
2023-07-10T16:52:37.874Z,7.28
2023-07-10T16:54:59.848Z,4.43
2023-07-10T16:57:21.323Z,4.60
2023-07-10T16:59:43.216Z,4.75
2023-07-10T17:02:20.721Z,4.63
2023-07-10T17:04:42.178Z,4.40
2023-07-10T17:07:03.913Z,4.90
2023-07-10T17:09:25.379Z,4.70
2023-07-10T17:11:46.832Z,7.18
2023-07-10T17:14:15.990Z,4.70
2023-07-10T17:16:37.609Z,4.72
2023-07-10T17:18:59.160Z,4.72
2023-07-10T17:21:20.653Z,4.75
2023-07-10T17:23:42.809Z,4.68
2023-07-10T17:26:04.928Z,5.45
2023-07-10T17:28:29.629Z,4.18
2023-07-10T17:30:52.983Z,4.80
2023-07-10T17:33:33.363Z,6.22
2023-07-10T17:35:55.089Z,5.90
2023-07-10T17:38:16.633Z,4.45
2023-07-10T17:40:38.163Z,4.35
2023-07-10T17:43:00.044Z,5.93
2023-07-10T17:45:21.633Z,5.90
2023-07-10T17:47:43.403Z,5.07
2023-07-10T17:50:05.243Z,4.22
2023-07-10T17:52:26.694Z,4.45
2023-07-10T17:54:48.171Z,5.13
2023-07-10T17:57:20.250Z,4.70
2023-07-10T17:59:41.745Z,4.00
2023-07-10T18:02:04.157Z,4.32
2023-07-10T18:04:28.765Z,6.45
2023-07-10T18:06:50.525Z,4.30
2023-07-10T18:09:25.291Z,4.68
2023-07-10T18:11:46.961Z,5.78
2023-07-10T18:14:12.910Z,6.85
2023-07-10T18:16:34.413Z,4.82
2023-07-10T18:18:55.931Z,4.78
2023-07-10T18:21:24.174Z,5.75
2023-07-10T18:23:45.839Z,4.45
2023-07-10T18:26:07.384Z,7.03
2023-07-10T18:28:28.840Z,3.72
2023-07-10T18:30:50.424Z,6.68
2023-07-10T18:33:13.757Z,4.43
2023-07-10T18:35:35.216Z,10.82
2023-07-10T18:37:56.640Z,4.78
2023-07-10T18:40:18.118Z,5.53
2023-07-10T18:42:39.673Z,4.55
2023-07-10T18:45:01.136Z,6.72
2023-07-10T18:47:23.814Z,4.55
2023-07-10T18:49:45.346Z,6.07
2023-07-10T18:52:24.777Z,6.05
2023-07-10T18:54:46.266Z,3.90
2023-07-10T18:57:09.090Z,4.03
2023-07-10T18:59:30.735Z,4.93
2023-07-10T19:01:55.182Z,4.20
2023-07-10T19:04:17.062Z,3.92
2023-07-10T19:06:41.423Z,6.18
2023-07-10T19:09:03.973Z,4.35
2023-07-10T19:11:25.619Z,4.82
2023-07-10T19:13:47.750Z,4.00
2023-07-10T19:16:20.880Z,4.47
2023-07-10T19:18:53.302Z,5.63
2023-07-10T19:21:14.751Z,4.78
2023-07-10T19:23:36.209Z,4.25
2023-07-10T19:25:58.907Z,5.47
2023-07-10T19:28:22.121Z,5.90
2023-07-10T19:30:48.858Z,3.88
2023-07-10T19:33:18.300Z,7.68
2023-07-10T19:35:39.850Z,7.63
2023-07-10T19:38:01.305Z,4.20
2023-07-10T19:40:24.155Z,5.47
2023-07-10T19:42:46.087Z,5.10
2023-07-10T19:45:09.205Z,4.63
2023-07-10T19:47:30.785Z,5.75
2023-07-10T19:49:52.436Z,4.75
2023-07-10T19:52:15.794Z,4.25
2023-07-10T19:54:37.250Z,9.68
2023-07-10T19:56:58.768Z,4.63
2023-07-10T19:59:21.658Z,4.78
2023-07-10T20:01:43.569Z,4.28
2023-07-10T20:04:05.031Z,4.97
2023-07-10T20:06:32.440Z,5.47
2023-07-10T20:08:54.018Z,5.15
2023-07-10T20:11:15.463Z,5.78
2023-07-10T20:13:37.024Z,6.70
2023-07-10T20:16:02.137Z,8.75
2023-07-10T20:18:27.361Z,7.57
2023-07-10T20:20:50.050Z,6.70
2023-07-10T20:23:12.929Z,6.80
2023-07-10T20:25:35.013Z,6.25
2023-07-10T20:27:56.470Z,5.35
2023-07-10T20:30:21.483Z,6.38
2023-07-10T20:32:43.032Z,5.05
2023-07-10T20:35:06.330Z,6.35
2023-07-10T20:37:28.062Z,5.22
2023-07-10T20:39:49.680Z,6.35
2023-07-10T20:42:15.527Z,5.05
2023-07-10T20:44:37.051Z,5.15
2023-07-10T20:46:59.337Z,4.80
2023-07-10T20:49:23.730Z,5.22
2023-07-10T20:51:46.392Z,5.03
2023-07-10T20:54:13.327Z,6.10
2023-07-10T20:56:35.634Z,6.03
2023-07-10T20:58:59.887Z,5.70
2023-07-10T21:01:28.661Z,5.60
2023-07-10T21:03:50.558Z,8.07
2023-07-10T21:06:17.261Z,7.18
2023-07-10T21:08:41.665Z,5.07
2023-07-10T21:11:03.968Z,5.85
2023-07-10T21:13:27.918Z,7.28
2023-07-10T21:15:49.443Z,5.15
2023-07-10T21:18:21.070Z,5.45
2023-07-10T21:20:43.687Z,5.15
2023-07-10T21:23:24.450Z,5.20
2023-07-10T21:25:45.965Z,5.55
2023-07-10T21:28:18.459Z,6.75
2023-07-10T21:30:39.994Z,5.63
2023-07-10T21:33:01.522Z,6.10
2023-07-10T21:35:30.956Z,4.93
2023-07-10T21:37:52.455Z,5.47
2023-07-10T21:40:13.997Z,7.35
2023-07-10T21:42:36.761Z,5.43
2023-07-10T21:44:58.385Z,5.55
2023-07-10T21:47:19.937Z,7.80
2023-07-10T21:49:41.488Z,5.35
2023-07-10T21:52:03.064Z,4.55
2023-07-10T21:54:24.511Z,6.07
2023-07-10T21:56:46.668Z,5.07
2023-07-10T21:59:18.634Z,5.55
2023-07-10T22:01:40.133Z,4.43
2023-07-10T22:04:01.766Z,5.00
2023-07-10T22:06:26.088Z,6.63
2023-07-10T22:08:48.234Z,5.38
2023-07-10T22:11:32.678Z,6.47
2023-07-10T22:13:54.162Z,6.10
2023-07-10T22:16:23.823Z,6.38
2023-07-10T22:18:46.916Z,7.03
2023-07-10T22:21:11.661Z,6.35
2023-07-10T22:23:34.120Z,6.90
2023-07-10T22:25:57.890Z,4.45
2023-07-10T22:28:29.373Z,6.20
2023-07-10T22:30:53.410Z,7.50
2023-07-10T22:33:17.305Z,7.85
2023-07-10T22:35:38.796Z,6.05
2023-07-10T22:38:00.249Z,5.32
2023-07-10T22:40:21.758Z,5.45
2023-07-10T22:42:43.277Z,5.03
2023-07-10T22:45:05.851Z,5.28
2023-07-10T22:47:27.326Z,7.35
2023-07-10T22:49:48.795Z,5.53
2023-07-10T22:52:10.232Z,5.40
2023-07-10T22:54:32.127Z,4.38
2023-07-10T22:56:53.552Z,5.32
2023-07-10T22:59:19.747Z,4.97
2023-07-10T23:01:41.368Z,5.32
2023-07-10T23:04:03.982Z,5.15
2023-07-10T23:06:31.048Z,5.13
2023-07-10T23:08:52.972Z,8.38
2023-07-10T23:11:14.713Z,5.47
2023-07-10T23:13:36.596Z,5.43
2023-07-10T23:15:58.705Z,6.82
2023-07-10T23:18:20.739Z,7.82
2023-07-10T23:20:42.232Z,5.40
2023-07-10T23:23:03.705Z,5.40
2023-07-10T23:25:26.539Z,6.88
2023-07-10T23:27:48.276Z,4.10
2023-07-10T23:30:13.167Z,5.38
2023-07-10T23:32:35.192Z,5.05
2023-07-10T23:34:56.777Z,5.30
2023-07-10T23:37:18.225Z,5.25
2023-07-10T23:39:39.720Z,5.43
2023-07-10T23:42:01.199Z,6.05
2023-07-10T23:44:22.686Z,5.88
2023-07-10T23:46:44.223Z,6.75
2023-07-10T23:49:05.705Z,4.60
2023-07-10T23:51:28.083Z,5.38
2023-07-10T23:53:49.591Z,5.78
2023-07-10T23:56:11.261Z,7.55
2023-07-10T23:58:32.795Z,5.47
